Time;durP1;ratioP1;P1;durP2;ratioP2;P2;SDS_P1;SDS_P2;PMS_P1;PMS_P2;Temp;Humidity;BMP_temperature;BMP_pressure;BME280_temperature;BME280_humidity;BME280_pressure;Samples;Min_cycle;Max_cycle;Signal;HPM_P1;HPM_P2
2022/09/20 00:03:02;;;;;;;1.37;0.80;;;11.30;99.90;;;9.56;92.97;100021.03;10279812;28;96750;-89
2022/09/20 00:08:09;;;;;;;0.87;0.60;;;11.20;99.90;;;9.57;92.82;100021.84;10358887;28;96528;-90
2022/09/20 00:13:13;;;;;;;1.87;0.80;;;11.30;99.90;;;9.54;92.38;100019.53;10249352;28;96580;-88
2022/09/20 00:18:16;;;;;;;0.83;0.60;;;11.30;99.90;;;9.54;92.22;100022.19;10282820;28;96529;-88
2022/09/20 00:23:19;;;;;;;1.20;0.70;;;11.30;99.90;;;9.51;91.71;100022.50;10303694;28;96694;-88
2022/09/20 00:28:22;;;;;;;0.93;0.57;;;11.20;99.90;;;9.52;91.54;100022.34;10306255;28;96557;-89
2022/09/20 00:35:06;;;;;;;0.60;0.47;;;11.30;99.90;;;9.53;91.38;100023.16;10291816;28;96528;-88
2022/09/20 00:39:00;;;;;;;0.90;0.47;;;11.30;99.90;;;9.54;90.95;100016.91;10293584;28;97546;-88
2022/09/20 00:44:42;;;;;;;0.73;0.53;;;11.20;99.90;;;9.51;90.66;100007.44;10289466;28;96717;-87
2022/09/20 00:49:45;;;;;;;0.80;0.57;;;11.30;99.90;;;9.47;90.65;100014.03;10290411;28;96607;-89
2022/09/20 00:54:50;;;;;;;0.80;0.40;;;11.20;99.90;;;9.41;90.48;100000.63;10286213;28;96575;-90
2022/09/20 00:59:53;;;;;;;0.97;0.53;;;11.20;99.90;;;9.41;90.31;100005.91;10276286;28;96546;-89
2022/09/20 01:04:57;;;;;;;0.50;0.40;;;11.20;99.90;;;9.38;90.42;99994.66;10286855;28;96674;-87
2022/09/20 01:10:00;;;;;;;0.70;0.40;;;11.20;99.90;;;9.37;90.32;100003.63;10283636;28;96585;-89
2022/09/20 01:15:05;;;;;;;1.10;0.50;;;11.20;99.90;;;9.39;90.36;100014.88;10272426;28;96774;-90
2022/09/20 01:20:16;;;;;;;1.77;0.97;;;11.20;99.90;;;9.43;90.44;100019.88;10307525;28;96916;-89
2022/09/20 01:25:56;;;;;;;0.83;0.43;;;11.20;99.90;;;9.45;90.57;100031.97;10287209;28;96856;-90
2022/09/20 01:31:38;;;;;;;0.70;0.50;;;11.30;99.90;;;9.49;90.54;100035.94;10291376;28;97359;-90
2022/09/20 01:36:50;;;;;;;0.32;0.30;;;11.40;99.90;;;9.53;90.71;100036.44;10285475;28;96825;-89
2022/09/20 01:41:59;;;;;;;0.70;0.37;;;11.40;99.90;;;9.58;90.78;100037.59;10295102;28;96642;-89
2022/09/20 01:47:38;;;;;;;0.53;0.37;;;11.40;99.90;;;9.62;90.77;100041.59;10291791;28;96713;-90
2022/09/20 01:53:36;;;;;;;1.10;0.50;;;11.50;99.90;;;9.68;90.59;100040.09;10314749;28;98405;-89
2022/09/20 01:59:13;;;;;;;0.90;0.50;;;11.50;99.90;;;9.67;90.27;100033.13;10285247;28;96869;-90
2022/09/20 02:05:39;;;;;;;0.75;0.50;;;11.50;99.90;;;9.66;90.15;100031.47;10295698;28;97978;-90
2022/09/20 02:11:04;;;;;;;1.23;0.60;;;11.50;99.90;;;9.57;89.69;100035.13;10252158;28;97893;-90
2022/09/20 02:16:48;;;;;;;1.17;0.53;;;11.40;99.90;;;9.51;89.65;100043.72;10287318;28;96636;-89
2022/09/20 02:22:25;;;;;;;5.00;0.70;;;11.40;99.90;;;9.49;89.81;100061.66;10279796;28;96877;-89
2022/09/20 02:28:21;;;;;;;1.07;0.50;;;11.40;99.90;;;9.45;89.93;100052.34;10267816;28;98010;-89
2022/09/20 02:33:42;;;;;;;2.13;0.67;;;11.40;99.90;;;9.42;90.13;100050.03;10236788;28;96625;-88
2022/09/20 02:39:06;;;;;;;0.60;0.60;;;11.30;99.90;;;9.38;90.12;100055.66;10260946;28;97067;-89
2022/09/20 02:44:27;;;;;;;1.50;0.97;;;11.30;99.90;;;9.41;90.15;100066.91;10293552;28;97206;-87
2022/09/20 02:50:08;;;;;;;1.00;0.70;;;11.20;99.90;;;9.34;90.13;100062.28;10276622;28;96943;-88
2022/09/20 02:55:17;;;;;;;1.00;0.70;;;11.20;99.90;;;9.32;90.12;100058.13;10293248;28;96578;-88
2022/09/20 03:00:27;;;;;;;1.57;0.93;;;11.20;99.90;;;9.29;89.82;100072.53;10292708;28;96446;-88
2022/09/20 03:06:04;;;;;;;1.20;0.70;;;11.10;99.90;;;9.27;89.82;100077.19;10274358;28;97168;-88
2022/09/20 03:11:55;;;;;;;1.03;0.57;;;11.10;99.90;;;9.28;89.61;100078.00;10276340;28;96546;-85
2022/09/20 03:17:47;;;;;;;0.80;0.60;;;11.10;99.90;;;9.30;89.79;100078.69;10247723;28;96866;-86
2022/09/20 03:23:48;;;;;;;1.07;0.77;;;11.10;99.90;;;9.30;89.72;100082.16;10296525;28;97987;-87
2022/09/20 03:29:22;;;;;;;1.50;0.97;;;11.10;99.90;;;9.29;89.53;100084.97;10261380;28;96721;-87
2022/09/20 03:35:15;;;;;;;2.10;0.70;;;11.10;99.90;;;9.27;89.44;100071.03;10286049;28;96647;-90
2022/09/20 03:40:40;;;;;;;1.27;0.73;;;11.10;99.90;;;9.24;89.39;100082.00;10281821;28;97897;-93
2022/09/20 03:46:37;;;;;;;1.00;0.80;;;11.00;99.90;;;9.18;89.30;100069.38;10272214;28;96794;-92
2022/09/20 03:51:47;;;;;;;1.20;0.90;;;11.00;99.90;;;9.19;89.33;100077.16;10275163;28;97218;-91
2022/09/20 03:57:26;;;;;;;1.50;0.90;;;10.90;99.90;;;9.20;89.43;100070.03;10304424;28;98511;-95
2022/09/20 04:03:01;;;;;;;2.53;0.70;;;10.90;99.90;;;9.14;89.19;100071.53;10284069;28;97338;-92
2022/09/20 04:08:12;;;;;;;1.53;0.80;;;11.00;99.90;;;9.15;89.26;100081.13;10282319;28;96736;-92
2022/09/20 04:14:16;;;;;;;1.40;0.83;;;10.90;99.90;;;9.13;89.14;100085.78;10283267;28;98251;-91
2022/09/20 04:19:44;;;;;;;1.58;0.80;;;10.90;99.90;;;9.08;89.10;100077.47;10286701;28;97086;-92
2022/09/20 04:25:06;;;;;;;1.20;0.80;;;10.80;99.90;;;9.04;88.83;100071.66;10310008;28;96682;-91
2022/09/20 04:30:20;;;;;;;;;;;10.80;99.90;;;9.01;88.90;100081.75;10254750;28;97963;-92
2022/09/20 04:41:36;;;;;;;1.50;1.10;;;10.70;99.90;;;8.78;89.13;100071.72;10253832;28;96758;-92
2022/09/20 04:47:05;;;;;;;;;;;10.60;99.90;;;8.78;89.51;100077.03;10266819;28;96655;-94
2022/09/20 04:52:43;;;;;;;0.80;0.63;;;10.50;99.90;;;8.77;89.79;100075.38;10302994;28;96601;-93
2022/09/20 04:58:24;;;;;;;2.63;0.97;;;10.60;99.90;;;8.77;89.99;100078.03;10289798;28;96627;-94
2022/09/20 05:04:13;;;;;;;1.47;0.90;;;10.50;99.90;;;8.72;90.25;100084.78;10297206;28;96485;-95
2022/09/20 05:09:37;;;;;;;0.90;0.70;;;10.50;99.90;;;8.71;90.48;100086.59;10293111;28;98236;-96
2022/09/20 05:14:57;;;;;;;1.20;0.80;;;10.50;99.90;;;8.73;90.93;100100.50;10293553;28;98184;-95
2022/09/20 05:20:47;;;;;;;1.97;1.00;;;10.50;99.90;;;8.82;91.34;100088.16;10307207;28;96651;-95
2022/09/20 05:26:14;;;;;;;1.93;1.00;;;10.60;99.90;;;8.95;91.35;100099.13;10278723;28;96688;-92
2022/09/20 05:31:43;;;;;;;1.63;0.90;;;10.70;99.90;;;9.09;91.41;100089.72;10295672;28;96599;-96
2022/09/20 05:37:20;;;;;;;1.10;0.70;;;10.80;99.90;;;9.24;91.46;100103.22;10298384;28;97212;-93
2022/09/20 05:42:53;;;;;;;1.50;0.80;;;10.90;99.90;;;9.39;91.00;100096.25;10284075;28;96651;-93
2022/09/20 05:48:21;;;;;;;1.90;0.90;;;11.10;99.90;;;9.51;90.15;100110.03;10239488;28;96558;-95
2022/09/20 05:53:55;;;;;;;1.73;0.80;;;11.20;99.90;;;9.54;89.33;100117.69;10301947;28;96641;-95
2022/09/20 05:59:19;;;;;;;1.53;0.80;;;11.30;99.90;;;9.59;89.11;100118.84;10257781;28;96427;-92
2022/09/20 06:04:41;;;;;;;1.07;0.70;;;11.30;99.90;;;9.72;89.59;100122.88;10271404;28;96450;-94
2022/09/20 06:10:03;;;;;;;2.60;0.93;;;11.40;99.90;;;9.84;88.92;100121.56;10262011;28;96781;-94
2022/09/20 06:15:25;;;;;;;3.20;0.93;;;11.50;99.90;;;9.97;88.57;100116.56;10291072;28;97018;-93
2022/09/20 06:20:49;;;;;;;1.40;0.70;;;11.70;99.90;;;10.13;88.19;100121.03;10287136;28;96497;-95
2022/09/20 06:26:06;;;;;;;1.27;0.70;;;11.80;99.90;;;10.25;87.95;100116.25;10304748;28;96623;-96
2022/09/20 06:31:10;;;;;;;2.50;0.90;;;12.00;99.90;;;10.34;86.98;100124.03;10311524;28;98318;-95
2022/09/20 06:42:09;;;;;;;1.37;0.80;;;12.30;99.90;;;10.67;85.38;100139.91;10289791;28;97466;-95
2022/09/20 06:47:13;;;;;;;1.37;0.70;;;12.40;99.90;;;10.77;84.36;100140.56;10279164;28;96669;-95
2022/09/20 06:52:21;;;;;;;1.50;1.00;;;12.50;99.90;;;10.86;84.07;100134.22;10306455;28;96996;-92
2022/09/20 06:57:38;;;;;;;1.67;0.80;;;12.60;99.90;;;11.01;83.02;100146.81;10292049;28;97373;-93
2022/09/20 07:02:42;;;;;;;0.73;0.53;;;12.70;99.90;;;11.11;82.22;100150.09;10291137;28;97367;-93
2022/09/20 07:07:46;;;;;;;1.03;0.67;;;12.80;99.90;;;11.20;81.49;100154.38;10285905;28;96776;-94
2022/09/20 07:12:49;;;;;;;1.40;0.80;;;12.90;99.90;;;11.26;79.77;100157.16;10285476;28;96781;-93
2022/09/20 07:17:52;;;;;;;1.50;0.70;;;13.00;99.90;;;11.49;80.15;100167.84;10318130;28;97076;-92
2022/09/20 07:22:55;;;;;;;0.73;0.50;;;13.10;99.90;;;11.74;79.87;100165.88;10273848;28;98274;-96
2022/09/20 07:27:58;;;;;;;1.70;0.83;;;13.40;99.90;;;11.92;78.59;100162.13;10301005;28;96623;-95
2022/09/20 07:33:01;;;;;;;0.60;0.50;;;13.60;99.90;;;12.13;77.71;100166.81;10306864;28;98285;-93
2022/09/20 07:38:04;;;;;;;1.07;0.63;;;13.80;99.90;;;12.23;76.09;100159.41;10282606;28;97362;-94
2022/09/20 07:43:07;;;;;;;0.93;0.60;;;13.90;99.90;;;12.27;74.78;100166.03;10272218;28;96825;-93
2022/09/20 07:48:13;;;;;;;1.02;0.65;;;14.00;99.90;;;12.29;74.37;100156.00;10292290;28;98383;-93
2022/09/20 07:53:16;;;;;;;0.67;0.67;;;14.00;99.90;;;12.44;73.29;100178.22;10291034;28;97793;-94
2022/09/20 07:58:19;;;;;;;1.40;0.77;;;14.10;99.90;;;12.57;72.62;100175.75;10309230;28;96641;-94
2022/09/20 08:03:22;;;;;;;1.57;0.97;;;14.20;99.90;;;12.71;71.39;100174.09;10292013;28;97440;-93
2022/09/20 08:08:25;;;;;;;0.80;0.60;;;14.40;99.90;;;12.85;71.39;100167.16;10307242;28;96675;-93
2022/09/20 08:13:28;;;;;;;1.90;0.90;;;14.50;99.90;;;13.01;71.04;100174.94;10297609;28;96653;-92
2022/09/20 08:18:56;;;;;;;1.30;0.80;;;14.60;99.90;;;12.92;69.66;100192.06;10312788;28;97643;-92
2022/09/20 08:23:59;;;;;;;1.20;0.87;;;14.60;99.60;;;12.84;70.32;100197.50;10291364;28;97362;-92
2022/09/20 08:29:04;;;;;;;1.33;0.70;;;14.50;99.90;;;12.66;70.22;100191.69;10275104;28;98097;-91
2022/09/20 08:34:11;;;;;;;0.80;0.60;;;14.40;99.60;;;12.66;71.25;100192.50;10273433;28;96465;-92
2022/09/20 08:39:14;;;;;;;1.27;0.63;;;14.30;99.90;;;12.83;70.70;100187.81;10291078;28;96702;-92
2022/09/20 08:44:51;;;;;;;0.70;0.55;;;14.40;99.90;;;12.89;69.12;100187.09;10288542;28;96726;-92
2022/09/20 08:50:06;;;;;;;1.07;0.67;;;14.50;99.10;;;12.82;68.89;100187.00;10307833;28;96505;-92
2022/09/20 08:55:23;;;;;;;0.70;0.60;;;14.50;99.10;;;12.87;68.81;100199.78;10290565;28;97255;-93
2022/09/20 09:00:33;;;;;;;1.35;0.73;;;14.50;98.10;;;12.89;68.65;100200.41;10292333;28;96439;-92
2022/09/20 09:05:42;;;;;;;0.82;0.60;;;14.50;98.50;;;12.92;68.54;100181.41;10292797;28;96617;-90
2022/09/20 09:10:53;;;;;;;0.98;0.60;;;14.60;98.20;;;13.05;68.26;100181.56;10267438;28;96680;-91
2022/09/20 09:16:10;;;;;;;1.38;0.70;;;14.70;98.70;;;13.17;67.64;100178.44;10300288;28;97414;-93
2022/09/20 09:21:26;;;;;;;0.95;0.60;;;14.80;97.50;;;13.25;66.94;100173.03;10287856;28;97536;-91
2022/09/20 09:26:40;;;;;;;1.10;0.70;;;14.90;98.00;;;13.25;66.53;100159.69;10288733;28;96477;-92
2022/09/20 09:31:51;;;;;;;1.00;0.70;;;14.90;97.20;;;13.29;66.26;100171.66;10291581;28;96666;-94
2022/09/20 09:36:56;;;;;;;0.98;0.57;;;14.90;97.00;;;13.31;66.50;100164.28;10304679;28;96714;-90
2022/09/20 09:41:59;;;;;;;1.50;0.90;;;14.90;97.40;;;13.58;67.83;100158.25;10303785;28;96606;-90
2022/09/20 09:47:03;;;;;;;1.80;0.70;;;15.10;98.50;;;13.84;65.47;100167.56;10293872;28;96436;-92
2022/09/20 09:52:23;;;;;;;0.98;0.70;;;15.50;96.70;;;13.87;64.30;100160.00;10295924;28;96534;-93
2022/09/20 09:57:59;;;;;;;0.70;0.53;;;15.50;95.80;;;13.90;64.82;100161.47;10296148;28;97304;-91
2022/09/20 10:03:32;;;;;;;1.15;0.47;;;15.60;96.20;;;13.94;64.28;100157.41;10296798;28;96689;-95
2022/09/20 10:09:05;;;;;;;1.75;0.70;;;15.60;95.50;;;13.90;63.58;100148.09;10313888;28;96679;-94
2022/09/20 10:14:34;;;;;;;1.17;0.65;;;15.50;95.20;;;14.09;64.75;100150.16;10296182;28;96501;-92
2022/09/20 10:20:27;;;;;;;1.10;0.60;;;15.70;96.00;;;14.57;63.77;100134.28;10311279;28;96698;-88
2022/09/20 10:25:42;;;;;;;;;;;16.10;95.70;;;15.04;62.29;100135.41;10312143;28;97033;-92
2022/09/20 10:31:36;;;;;;;0.90;0.60;;;16.50;94.60;;;15.30;59.91;100123.19;10312307;28;96816;-92
2022/09/20 10:36:54;;;;;;;1.13;0.40;;;16.80;92.50;;;15.57;59.64;100121.41;10295881;28;96722;-93
2022/09/20 10:48:01;;;;;;;0.65;0.40;;;17.20;92.10;;;16.04;57.92;100112.44;10295377;28;96585;-90
2022/09/20 10:53:16;;;;;;;0.57;0.40;;;17.60;91.30;;;16.52;56.62;100114.91;10310743;28;96622;-92
2022/09/20 10:59:04;;;;;;;0.82;0.35;;;18.50;90.60;;;17.25;55.93;100112.84;10310083;28;96691;-93
2022/09/20 11:04:36;;;;;;;1.48;0.50;;;19.30;90.60;;;17.98;52.31;100111.63;10279950;28;98723;-90
2022/09/20 11:09:49;;;;;;;0.93;0.40;;;20.00;81.60;;;18.34;50.68;100106.34;10293674;28;98301;-91
2022/09/20 11:15:03;;;;;;;1.10;0.30;;;20.20;82.10;;;18.64;50.50;100108.34;10253019;28;96701;-92
2022/09/20 11:20:26;;;;;;;0.65;0.40;;;20.40;80.60;;;19.01;49.72;100103.81;10324909;28;96880;-92
2022/09/20 11:25:36;;;;;;;0.70;0.40;;;20.60;78.80;;;19.24;49.62;100095.06;10293693;28;96532;-92
2022/09/20 11:31:01;;;;;;;0.75;0.30;;;20.70;79.60;;;19.54;47.26;100103.16;10292761;28;96691;-92
2022/09/20 11:36:13;;;;;;;0.35;0.30;;;20.90;75.30;;;19.68;46.41;100084.97;10310663;28;96427;-91
2022/09/20 11:41:31;;;;;;;0.32;0.30;;;20.90;75.00;;;19.78;45.09;100087.91;10268923;28;96741;-91
2022/09/20 11:47:00;;;;;;;1.13;0.50;;;21.00;72.00;;;19.65;45.49;100090.78;10285455;28;96450;-92
2022/09/20 11:52:12;;;;;;;0.80;0.40;;;20.80;70.00;;;19.61;46.01;100078.81;10268776;28;96562;-90
2022/09/20 11:57:15;;;;;;;0.25;0.20;;;20.70;71.50;;;19.64;46.51;100073.00;10269172;28;96698;-89
2022/09/20 12:02:50;;;;;;;0.43;0.20;;;20.70;73.80;;;19.40;45.06;100067.50;10285212;28;96687;-95
2022/09/20 12:07:57;;;;;;;0.20;0.20;;;20.50;68.50;;;19.23;45.49;100080.75;10284142;28;96576;-90
2022/09/20 12:13:07;;;;;;;0.70;0.32;;;20.40;71.50;;;18.97;46.37;100063.09;10253820;28;96697;-89
2022/09/20 12:18:35;;;;;;;2.50;0.50;;;20.20;71.90;;;18.64;46.54;100070.66;10271219;28;96566;-90
2022/09/20 12:23:41;;;;;;;0.77;0.40;;;20.00;71.30;;;18.21;46.24;100071.50;10296981;28;96863;-86
2022/09/20 12:28:50;;;;;;;1.10;0.40;;;19.50;71.00;;;17.79;48.68;100075.78;10306025;28;96528;-90
2022/09/20 12:34:12;;;;;;;1.23;0.50;;;19.10;73.30;;;17.28;49.25;100082.91;10275199;28;96601;-91
2022/09/20 12:39:17;;;;;;;0.63;0.50;;;18.80;74.10;;;16.57;50.56;100077.53;10267705;28;97001;-91
2022/09/20 12:44:39;;;;;;;0.50;0.32;;;18.10;75.40;;;15.89;52.45;100085.81;10303488;28;97278;-89
2022/09/20 12:55:08;;;;;;;0.75;0.50;;;17.00;78.30;;;15.07;56.21;100089.53;10287936;28;97063;-93
2022/09/20 13:00:53;;;;;;;1.08;0.80;;;16.70;81.60;;;14.81;58.79;100100.91;10292198;28;96443;-91
2022/09/20 13:11:17;;;;;;;1.20;0.80;;;16.20;86.20;;;14.52;61.09;100101.19;10294576;28;96692;-87
2022/09/20 13:16:44;;;;;;;7.18;3.55;;;16.10;87.20;;;14.51;61.07;100097.66;10272601;28;98064;-91
2022/09/20 13:22:13;;;;;;;1.42;0.90;;;16.10;87.80;;;14.62;60.54;100091.75;10298296;28;96521;-87
2022/09/20 13:27:31;;;;;;;55.45;17.38;;;16.20;87.10;;;14.87;60.79;100085.91;10298271;28;98414;-85
2022/09/20 13:32:34;;;;;;;4.97;2.33;;;16.40;87.70;;;15.05;61.16;100080.84;10288501;28;96684;-86
2022/09/20 13:38:04;;;;;;;1.40;1.02;;;16.70;88.90;;;15.21;61.66;100080.50;10263566;28;96779;-86
2022/09/20 13:43:32;;;;;;;1.52;0.90;;;16.70;90.00;;;15.35;59.64;100088.56;10310382;28;96761;-86
2022/09/20 13:48:35;;;;;;;1.10;0.90;;;16.90;86.20;;;15.45;58.40;100086.34;10298270;28;96572;-87
2022/09/20 13:53:38;;;;;;;4.65;2.40;;;17.00;84.80;;;15.49;58.11;100084.94;10272396;28;98377;-85
2022/09/20 13:58:44;;;;;;;1.65;0.75;;;17.00;85.30;;;15.34;56.27;100085.06;10325358;28;96628;-85
2022/09/20 14:03:47;;;;;;;0.60;0.30;;;17.00;82.30;;;15.08;55.33;100083.16;10276191;28;96617;-86
2022/09/20 14:08:50;;;;;;;0.88;0.30;;;16.70;81.10;;;14.86;55.97;100085.09;10278662;28;96539;-85
2022/09/20 14:14:00;;;;;;;2.47;1.38;;;16.50;81.30;;;14.71;56.67;100103.97;10292178;28;97354;-85
2022/09/20 14:19:08;;;;;;;3.07;1.37;;;16.30;82.50;;;14.44;56.38;100102.09;10322046;28;96724;-86
2022/09/20 14:24:58;;;;;;;4.38;1.77;;;16.10;82.00;;;14.16;56.80;100099.44;10294899;28;96613;-87
2022/09/20 14:30:02;;;;;;;12.30;7.78;;;15.80;82.60;;;13.89;57.15;100098.38;10250055;28;97362;-87
2022/09/20 14:35:19;;;;;;;1.13;0.57;;;15.60;82.50;;;13.71;57.47;100100.66;10294077;28;96708;-84
2022/09/20 14:40:32;;;;;;;0.50;0.40;;;15.40;82.90;;;13.68;58.34;100095.72;10289668;28;96616;-86
2022/09/20 14:45:41;;;;;;;0.50;0.40;;;15.30;83.90;;;13.66;58.67;100104.72;10288257;28;97257;-84
2022/09/20 14:51:16;;;;;;;0.47;0.30;;;15.30;84.00;;;13.69;58.77;100092.03;10289501;28;98772;-84
2022/09/20 14:56:34;;;;;;;9.55;3.33;;;15.30;84.20;;;13.71;59.29;100109.50;10278124;28;96724;-84
2022/09/20 15:01:43;;;;;;;1.42;0.70;;;15.40;84.80;;;13.66;59.75;100115.41;10278957;28;96589;-85
2022/09/20 15:06:49;;;;;;;0.90;0.60;;;15.30;85.40;;;13.64;60.76;100133.47;10283932;28;97634;-83
2022/09/20 15:12:09;;;;;;;1.00;0.50;;;15.30;86.70;;;13.56;61.19;100141.63;10293735;28;97212;-85
2022/09/20 15:17:22;;;;;;;0.63;0.30;;;15.20;87.60;;;13.41;61.63;100138.13;10290473;28;98374;-83
2022/09/20 15:22:26;;;;;;;0.85;0.50;;;15.10;87.90;;;13.23;61.15;100135.88;10288072;28;97175;-83
2022/09/20 15:27:29;;;;;;;0.52;0.40;;;14.90;87.30;;;13.13;61.77;100151.31;10281643;28;96641;-83
2022/09/20 15:32:31;;;;;;;1.17;0.60;;;14.80;88.20;;;13.01;62.64;100142.94;10292594;28;97434;-86
2022/09/20 15:37:35;;;;;;;0.53;0.50;;;14.70;88.90;;;12.88;63.66;100148.09;10309656;28;96651;-84
2022/09/20 15:42:40;;;;;;;1.50;0.80;;;14.60;90.00;;;12.75;65.06;100155.91;10281145;28;97678;-84
2022/09/20 15:47:43;;;;;;;1.13;0.63;;;14.50;91.00;;;12.60;66.06;100150.59;10304630;28;96694;-82
2022/09/20 15:52:50;;;;;;;2.13;0.73;;;14.30;91.60;;;12.53;67.00;100163.81;10292448;28;96452;-82
2022/09/20 15:57:52;;;;;;;1.07;0.87;;;14.20;92.10;;;12.49;68.07;100159.00;10277588;28;96742;-83
2022/09/20 16:02:55;;;;;;;2.30;1.30;;;14.20;93.30;;;12.45;68.98;100163.03;10298970;28;97226;-86
2022/09/20 16:07:58;;;;;;;1.57;1.00;;;14.10;93.60;;;12.41;69.74;100167.06;10279247;28;96625;-85
2022/09/20 16:13:01;;;;;;;1.87;1.20;;;14.10;94.10;;;12.33;70.49;100176.78;10280498;28;97292;-86
2022/09/20 16:23:26;;;;;;;1.90;1.30;;;13.90;95.60;;;12.19;71.85;100179.44;10312040;28;96651;-82
2022/09/20 16:28:29;;;;;;;3.03;1.60;;;13.80;95.70;;;12.15;71.88;100165.63;10282726;28;97932;-83
2022/09/20 16:33:35;;;;;;;1.60;1.10;;;13.80;95.90;;;12.13;72.06;100169.50;10286292;28;96855;-85
2022/09/20 16:38:43;;;;;;;0.93;0.70;;;13.80;96.10;;;12.09;71.84;100168.19;10285384;28;96686;-88
2022/09/20 16:43:48;;;;;;;3.17;2.00;;;13.70;95.90;;;12.03;71.56;100180.38;10291148;28;98072;-89
2022/09/20 16:48:53;;;;;;;1.70;1.20;;;13.70;95.80;;;11.98;71.88;100182.72;10287415;28;98194;-87
2022/09/20 16:53:56;;;;;;;1.63;0.80;;;13.60;95.90;;;11.92;71.57;100184.25;10296363;28;97101;-86
2022/09/20 16:59:04;;;;;;;5.43;2.43;;;13.60;95.80;;;11.87;71.15;100194.63;10279680;28;98070;-86
2022/09/20 17:04:08;;;;;;;15.07;5.63;;;13.60;95.60;;;11.85;71.37;100198.47;10285577;28;96580;-87
2022/09/20 17:09:12;;;;;;;7.30;3.90;;;13.60;95.60;;;11.82;71.37;100198.84;10277668;28;96651;-87
2022/09/20 17:14:19;;;;;;;5.93;2.83;;;13.60;95.60;;;11.72;71.79;100201.69;10280515;28;97115;-87
2022/09/20 17:19:22;;;;;;;14.43;8.43;;;13.50;95.60;;;11.58;71.86;100215.75;10292000;28;96586;-86
2022/09/20 17:24:25;;;;;;;19.90;11.90;;;13.40;95.70;;;11.45;72.17;100218.94;10286876;28;97118;-86
2022/09/20 17:29:27;;;;;;;75.47;37.23;;;13.30;95.90;;;11.30;72.15;100226.00;10291488;28;96684;-86
2022/09/20 17:34:30;;;;;;;17.57;9.57;;;13.10;96.00;;;11.11;72.67;100219.25;10273070;28;96614;-86
2022/09/20 17:39:33;;;;;;;14.03;9.03;;;12.90;96.30;;;10.89;73.05;100223.44;10274940;28;98997;-86
2022/09/20 17:44:37;;;;;;;5.70;3.23;;;12.70;96.60;;;10.81;73.48;100232.25;10284823;28;96971;-86
2022/09/20 17:49:41;;;;;;;1.87;1.30;;;12.60;97.10;;;10.64;73.72;100231.44;10297977;28;98513;-85
2022/09/20 17:54:44;;;;;;;1.57;1.10;;;12.50;97.10;;;10.60;73.82;100243.41;10287327;28;96674;-86
2022/09/20 17:59:47;;;;;;;2.27;1.20;;;12.40;97.20;;;10.51;73.96;100247.06;10268565;28;97216;-87
2022/09/20 18:04:51;;;;;;;2.70;1.40;;;12.30;97.10;;;10.43;73.66;100250.56;10289597;28;96621;-86
2022/09/20 18:09:54;;;;;;;1.27;0.70;;;12.20;97.10;;;10.44;73.62;100262.03;10293500;28;98453;-86
2022/09/20 18:14:57;;;;;;;1.30;0.80;;;12.20;97.00;;;10.42;73.40;100261.34;10290124;28;98179;-88
2022/09/20 18:20:00;;;;;;;0.57;0.30;;;12.10;97.00;;;10.47;73.24;100276.78;10278511;28;96715;-86
2022/09/20 18:25:04;;;;;;;0.40;0.30;;;12.20;96.90;;;10.49;73.17;100282.75;10295782;28;96970;-87
2022/09/20 18:30:07;;;;;;;0.73;0.50;;;12.20;97.00;;;10.50;73.32;100277.28;10308892;28;96581;-88
2022/09/20 18:35:10;;;;;;;2.93;0.70;;;12.20;97.20;;;10.50;73.30;100265.84;10274450;28;96756;-87
2022/09/20 18:40:13;;;;;;;2.97;1.60;;;12.20;97.60;;;10.48;74.11;100279.28;10272392;28;96727;-88
2022/09/20 18:45:18;;;;;;;2.40;1.07;;;12.20;97.80;;;10.44;74.33;100276.13;10285994;28;97432;-87
2022/09/20 18:50:25;;;;;;;1.87;0.90;;;12.20;97.80;;;10.41;74.65;100280.94;10265246;28;97365;-87
2022/09/20 18:55:28;;;;;;;1.90;0.93;;;12.10;98.00;;;10.37;74.72;100276.94;10287384;28;98070;-85
2022/09/20 19:00:32;;;;;;;0.97;0.47;;;12.10;98.10;;;10.36;75.04;100293.88;10290289;28;98039;-83
2022/09/20 19:05:51;;;;;;;1.17;0.60;;;12.10;98.00;;;10.35;74.34;100284.25;10281354;28;96952;-85
2022/09/20 19:11:02;;;;;;;0.93;0.43;;;12.10;98.00;;;10.33;74.03;100287.06;10291472;28;96776;-87
2022/09/20 19:16:19;;;;;;;1.27;0.40;;;12.10;97.70;;;10.29;73.67;100285.72;10253707;28;97043;-87
2022/09/20 19:21:44;;;;;;;0.60;0.40;;;12.00;97.50;;;10.25;73.44;100283.56;10285040;28;97148;-87
2022/09/20 19:26:47;;;;;;;1.27;0.50;;;12.00;97.50;;;10.22;73.45;100283.88;10286917;28;98003;-86
2022/09/20 19:31:57;;;;;;;0.80;0.47;;;11.90;97.60;;;10.21;73.65;100283.03;10268012;28;96732;-87
2022/09/20 19:37:50;;;;;;;1.53;0.70;;;11.90;97.90;;;10.15;74.07;100281.88;10305313;28;97404;-88
2022/09/20 19:43:18;;;;;;;0.90;0.50;;;11.80;98.10;;;10.09;74.70;100287.81;10306206;28;97257;-88
2022/09/20 19:48:39;;;;;;;1.27;0.43;;;11.80;98.40;;;10.02;75.22;100291.31;10278958;28;96801;-87
2022/09/20 19:53:42;;;;;;;1.43;0.77;;;11.70;98.80;;;9.96;75.92;100307.88;10295045;28;98228;-85
2022/09/20 19:58:46;;;;;;;1.00;0.40;;;11.70;99.20;;;9.89;76.35;100316.44;10302143;28;96645;-85
2022/09/20 20:03:50;;;;;;;1.10;0.70;;;11.60;99.50;;;9.83;76.74;100316.25;10281581;28;98339;-83
2022/09/20 20:09:20;;;;;;;2.70;1.00;;;11.60;99.60;;;9.79;77.26;100321.06;10315020;28;97657;-83
2022/09/20 20:14:39;;;;;;;0.93;0.60;;;11.50;99.80;;;9.80;77.37;100322.75;10292884;28;96654;-83
2022/09/20 20:20:27;;;;;;;1.00;0.60;;;11.50;99.80;;;9.85;77.38;100331.06;10285092;28;97160;-83
2022/09/20 20:25:40;;;;;;;0.73;0.40;;;11.60;99.90;;;9.80;77.57;100328.03;10290548;28;96540;-83
2022/09/20 20:30:43;;;;;;;1.90;0.60;;;11.50;99.90;;;9.74;78.06;100334.00;10262652;28;96554;-83
2022/09/20 20:35:57;;;;;;;1.70;0.60;;;11.50;99.90;;;9.66;78.28;100339.28;10255647;28;96677;-83
2022/09/20 20:41:13;;;;;;;0.77;0.50;;;11.40;99.90;;;9.62;78.63;100348.53;10282070;28;96612;-84
2022/09/20 20:46:19;;;;;;;1.53;0.70;;;11.40;99.90;;;9.58;79.09;100347.16;10284386;28;96673;-84
2022/09/20 20:51:22;;;;;;;1.03;0.60;;;11.40;99.90;;;9.56;79.55;100346.50;10275525;28;97649;-84
2022/09/20 20:56:28;;;;;;;0.80;0.60;;;11.30;99.90;;;9.54;79.81;100361.75;10304004;28;97594;-84
2022/09/20 21:01:37;;;;;;;1.57;1.00;;;11.30;99.90;;;9.47;80.00;100358.03;10282479;28;98157;-85
2022/09/20 21:06:41;;;;;;;1.50;0.87;;;11.20;99.90;;;9.46;80.23;100365.16;10284880;28;96596;-84
2022/09/20 21:11:45;;;;;;;0.83;0.40;;;11.20;99.90;;;9.46;80.46;100370.47;10286682;28;98473;-84
2022/09/20 21:16:50;;;;;;;0.67;0.50;;;11.20;99.90;;;9.44;80.52;100366.31;10274218;28;98230;-84
2022/09/20 21:21:53;;;;;;;1.07;0.67;;;11.20;99.90;;;9.44;80.53;100368.97;10280665;28;99024;-84
2022/09/20 21:26:56;;;;;;;1.23;0.60;;;11.20;99.90;;;9.44;80.74;100366.31;10299260;28;97455;-84
2022/09/20 21:31:59;;;;;;;1.53;0.60;;;11.20;99.90;;;9.39;80.67;100361.47;10283560;28;97151;-85
2022/09/20 21:37:01;;;;;;;1.47;0.90;;;11.20;99.90;;;9.42;81.25;100373.63;10285758;28;97436;-84
2022/09/20 21:42:06;;;;;;;0.63;0.50;;;11.20;99.90;;;9.43;81.15;100375.28;10288689;28;96882;-84
2022/09/20 21:47:09;;;;;;;1.37;0.80;;;11.10;99.90;;;9.42;81.42;100377.09;10284097;28;97990;-84
2022/09/20 21:52:13;;;;;;;1.67;0.70;;;11.20;99.90;;;9.45;81.29;100379.44;10289263;28;97630;-84
2022/09/20 21:57:15;;;;;;;0.90;0.60;;;11.20;99.90;;;9.45;81.41;100391.88;10297167;28;96655;-84
2022/09/20 22:02:18;;;;;;;1.40;0.77;;;11.30;99.90;;;9.43;81.25;100383.25;10298143;28;96595;-85
2022/09/20 22:07:21;;;;;;;0.97;0.63;;;11.20;99.90;;;9.40;81.18;100389.66;10318514;28;96617;-84
2022/09/20 22:12:24;;;;;;;1.77;0.60;;;11.20;99.90;;;9.44;81.21;100400.81;10266227;28;96559;-83
2022/09/20 22:17:28;;;;;;;1.27;0.60;;;11.30;99.90;;;9.39;81.14;100394.16;10292635;28;96767;-85